| time (UTC) | temp C | wind direction | speed KPH | gust KPH | rain 1hr cm | rain 24hr cm | rain mn cm | humidity % | barometer mb |
| 20260503202612 | 14 | 0.0 | 0.0 | 0.00 | 0.00 | 0.00 | 61 | ||
| 20260503202313 | 14 | 0.0 | 0.0 | 0.00 | 0.00 | 0.00 | 61 | ||
| 20260503201419 | 14 | 0.0 | 0.0 | 0.00 | 0.00 | 0.00 | 61 | ||
| 20260503201121 | 14 | 0.0 | 0.0 | 0.00 | 0.00 | 0.00 | 61 | ||
| 20260503200226 | 14 | 0.0 | 0.0 | 0.00 | 0.00 | 0.00 | 61 | ||
| 20260503195928 | 14 | 0.0 | 0.0 | 0.00 | 0.00 | 0.00 | 61 | ||
| 20260503195033 | 14 | 0.0 | 0.0 | 0.00 | 0.00 | 0.00 | 61 | ||
| 20260503194735 | 14 | 0.0 | 0.0 | 0.00 | 0.00 | 0.00 | 61 | ||
| 20260503193841 | 14 | 0.0 | 0.0 | 0.00 | 0.00 | 0.00 | 61 | ||
| 20260503193542 | 14 | 0.0 | 0.0 | 0.00 | 0.00 | 0.00 | 61 | ||
| 20260503192649 | 13 | 0.0 | 0.0 | 0.00 | 0.00 | 0.00 | 61 | ||
| 20260503192351 | 13 | 0.0 | 0.0 | 0.00 | 0.00 | 0.00 | 61 | ||
| 20260503191458 | 13 | 0.0 | 0.0 | 0.00 | 0.00 | 0.00 | 61 | ||
| 20260503191200 | 13 | 0.0 | 0.0 | 0.00 | 0.00 | 0.00 | 61 | ||
| 20260503190306 | 13 | 0.0 | 0.0 | 0.00 | 0.00 | 0.00 | 61 | ||
| 20260503190008 | 13 | 0.0 | 0.0 | 0.00 | 0.00 | 0.00 | 61 | ||
| 20260503185115 | 13 | 0.0 | 0.0 | 0.00 | 0.00 | 0.00 | 62 | ||
| 20260503184816 | 13 | 0.0 | 0.0 | 0.00 | 0.00 | 0.00 | 62 | ||
| 20260503183922 | 13 | 0.0 | 0.0 | 0.00 | 0.00 | 0.00 | 62 | ||
| 20260503183623 | 13 | 0.0 | 0.0 | 0.00 | 0.00 | 0.00 | 62 | ||
| 20260503182729 | 13 | 0.0 | 0.0 | 0.00 | 0.00 | 0.00 | 62 | ||
| 20260503182431 | 13 | 0.0 | 0.0 | 0.00 | 0.00 | 0.00 | 62 | ||
| 20260503181536 | 13 | 0.0 | 0.0 | 0.00 | 0.00 | 0.00 | 62 | ||
| 20260503181238 | 13 | 0.0 | 0.0 | 0.00 | 0.00 | 0.00 | 62 | ||
| 20260503180344 | 13 | 0.0 | 0.0 | 0.00 | 0.00 | 0.00 | 62 | ||
| 20260503180045 | 13 | 0.0 | 0.0 | 0.00 | 0.00 | 0.00 | 62 | ||
| 20260503175151 | 13 | 0.0 | 0.0 | 0.00 | 0.00 | 0.00 | 62 | ||
| 20260503174852 | 13 | 0.0 | 0.0 | 0.00 | 0.00 | 0.00 | 62 | ||
| 20260503173957 | 14 | 0.0 | 0.0 | 0.00 | 0.00 | 0.00 | 62 | ||
| 20260503173659 | 13 | 0.0 | 0.0 | 0.00 | 0.00 | 0.00 | 62 | ||
| 20260503172803 | 14 | 0.0 | 0.0 | 0.00 | 0.00 | 0.00 | 62 | ||
| 20260503172505 | 14 | 0.0 | 0.0 | 0.00 | 0.00 | 0.00 | 62 | ||
| 20260503171609 | 14 | 0.0 | 0.0 | 0.00 | 0.00 | 0.00 | 62 | ||
| 20260503171310 | 14 | 0.0 | 0.0 | 0.00 | 0.00 | 0.00 | 62 | ||
| 20260503170415 | 14 | 0.0 | 0.0 | 0.00 | 0.00 | 0.00 | 62 | ||
| 20260503170116 | 14 | 0.0 | 0.0 | 0.00 | 0.00 | 0.00 | 62 | ||
| 20260503160144 | 14 | 0.0 | 0.0 | 0.00 | 0.00 | 0.00 | 62 | ||
| 20260503150510 | 15 | 0.0 | 0.0 | 0.00 | 0.00 | 0.00 | 61 | ||
| 20260503150211 | 15 | 0.0 | 0.0 | 0.00 | 0.00 | 0.00 | 61 | ||
| 20260503140240 | 15 | 0.0 | 0.0 | 0.00 | 0.00 | 0.00 | 61 | ||
| 20260503130604 | 15 | 0.0 | 0.0 | 0.00 | 0.00 | 0.00 | 62 | ||
| 20260503130305 | 15 | 0.0 | 0.0 | 0.00 | 0.00 | 0.00 | 62 | ||
| 20260503110632 | 16 | 0.0 | 0.0 | 0.00 | 0.00 | 0.00 | 62 | ||
| 20260503110332 | 16 | 0.0 | 0.0 | 0.00 | 0.00 | 0.00 | 62 | ||
| 20260503050512 | 23 | 0.0 | 0.0 | 0.00 | 0.00 | 0.00 | 53 | ||
| 20260503050211 | 23 | 0.0 | 0.0 | 0.00 | 0.00 | 0.00 | 53 | ||
| 20260503045308 | 23 | 0.0 | 0.0 | 0.00 | 0.00 | 0.00 | 52 | ||
| 20260503045006 | 23 | 0.0 | 0.0 | 0.00 | 0.00 | 0.00 | 52 | ||
| 20260503044103 | 23 | 0.0 | 0.0 | 0.00 | 0.00 | 0.00 | 51 | ||
| 20260503043802 | 23 | 0.0 | 0.0 | 0.00 | 0.00 | 0.00 | 51 | ||
| 20260503042859 | 25 | 0.0 | 0.0 | 0.00 | 0.00 | 0.00 | 49 | ||
| 20260503042558 | 25 | 0.0 | 0.0 | 0.00 | 0.00 | 0.00 | 49 | ||
| 20260503041656 | 25 | 0.0 | 0.0 | 0.00 | 0.00 | 0.00 | 47 | ||
| 20260503041355 | 26 | 0.0 | 0.0 | 0.00 | 0.00 | 0.00 | 47 | ||
| 20260503040454 | 26 | 0.0 | 0.0 | 0.00 | 0.00 | 0.00 | 46 | ||
| 20260503040153 | 25 | 0.0 | 0.0 | 0.00 | 0.00 | 0.00 | 47 | ||
| 20260503035252 | 24 | 0.0 | 0.0 | 0.00 | 0.00 | 0.00 | 49 | ||
| 20260503034951 | 23 | 0.0 | 0.0 | 0.00 | 0.00 | 0.00 | 49 | ||
| 20260503034050 | 23 | 0.0 | 0.0 | 0.00 | 0.00 | 0.00 | 50 | ||
| 20260503033749 | 23 | 0.0 | 0.0 | 0.00 | 0.00 | 0.00 | 50 | ||
| 20260503032848 | 23 | 0.0 | 0.0 | 0.00 | 0.00 | 0.00 | 50 | ||
| 20260503032547 | 23 | 0.0 | 0.0 | 0.00 | 0.00 | 0.00 | 50 | ||
| 20260503031646 | 23 | 0.0 | 0.0 | 0.00 | 0.00 | 0.00 | 50 | ||
| 20260503031345 | 23 | 0.0 | 0.0 | 0.00 | 0.00 | 0.00 | 49 | ||
| 20260503030445 | 24 | 0.0 | 0.0 | 0.00 | 0.00 | 0.00 | 48 | ||
| 20260503030145 | 25 | 0.0 | 0.0 | 0.00 | 0.00 | 0.00 | 47 | ||
| 20260503025245 | 25 | 0.0 | 0.0 | 0.00 | 0.00 | 0.00 | 46 | ||
| 20260503024945 | 25 | 0.0 | 0.0 | 0.00 | 0.00 | 0.00 | 45 | ||
| 20260503024046 | 26 | 0.0 | 0.0 | 0.00 | 0.00 | 0.00 | 44 | ||
| 20260503023745 | 26 | 0.0 | 0.0 | 0.00 | 0.00 | 0.00 | 43 | ||
| 20260503022847 | 26 | 0.0 | 0.0 | 0.00 | 0.00 | 0.00 | 43 | ||
| 20260503022547 | 26 | 0.0 | 0.0 | 0.00 | 0.00 | 0.00 | 43 | ||
| 20260503021650 | 26 | 0.0 | 0.0 | 0.00 | 0.00 | 0.00 | 42 | ||
| 20260503021351 | 26 | 0.0 | 0.0 | 0.00 | 0.00 | 0.00 | 41 | ||
| 20260503020454 | 27 | 0.0 | 0.0 | 0.00 | 0.00 | 0.00 | 39 | ||
| 20260503020155 | 27 | 0.0 | 0.0 | 0.00 | 0.00 | 0.00 | 39 | ||
| 20260503015001 | 26 | 0.0 | 0.0 | 0.00 | 0.00 | 0.00 | 40 | ||
| 20260503014108 | 25 | 0.0 | 0.0 | 0.00 | 0.00 | 0.00 | 41 | ||
| 20260503013810 | 25 | 0.0 | 0.0 | 0.00 | 0.00 | 0.00 | 41 | ||
| 20260503012918 | 23 | 0.0 | 0.0 | 0.00 | 0.00 | 0.00 | 42 | ||
| 20260503012620 | 23 | 0.0 | 0.0 | 0.00 | 0.00 | 0.00 | 43 | ||
| 20260503011729 | 22 | 0.0 | 0.0 | 0.00 | 0.00 | 0.00 | 43 | ||
| 20260503011431 | 22 | 0.0 | 0.0 | 0.00 | 0.00 | 0.00 | 43 | ||
| 20260503010540 | 22 | 0.0 | 0.0 | 0.00 | 0.00 | 0.00 | 43 | ||
| 20260503010243 | 22 | 0.0 | 0.0 | 0.00 | 0.00 | 0.00 | 43 | ||
| 20260503005354 | 21 | 0.0 | 0.0 | 0.00 | 0.00 | 0.00 | 43 | ||
| 20260503005058 | 21 | 0.0 | 0.0 | 0.00 | 0.00 | 0.00 | 43 | ||
| 20260503004210 | 20 | 0.0 | 0.0 | 0.00 | 0.00 | 0.00 | 45 | ||
| 20260503003913 | 20 | 0.0 | 0.0 | 0.00 | 0.00 | 0.00 | 45 | ||
| 20260503003026 | 19 | 0.0 | 0.0 | 0.00 | 0.00 | 0.00 | 46 | ||
| 20260503002730 | 18 | 0.0 | 0.0 | 0.00 | 0.00 | 0.00 | 47 | ||
| 20260503001843 | 18 | 0.0 | 0.0 | 0.00 | 0.00 | 0.00 | 48 | ||
| 20260503001547 | 17 | 0.0 | 0.0 | 0.00 | 0.00 | 0.00 | 48 | ||
| 20260503000407 | 17 | 0.0 | 0.0 | 0.00 | 0.00 | 0.00 | 49 | ||
| 20260502235519 | 16 | 0.0 | 0.0 | 0.00 | 0.00 | 0.00 | 50 | ||
| 20260502235223 | 16 | 0.0 | 0.0 | 0.00 | 0.00 | 0.00 | 50 | ||
| 20260502234337 | 15 | 0.0 | 0.0 | 0.00 | 0.00 | 0.00 | 51 | ||
| 20260502234042 | 15 | 0.0 | 0.0 | 0.00 | 0.00 | 0.00 | 51 | ||
| 20260502233156 | 15 | 0.0 | 0.0 | 0.00 | 0.00 | 0.00 | 52 | ||
| 20260502232901 | 15 | 0.0 | 0.0 | 0.00 | 0.00 | 0.00 | 52 | ||
| 20260502232015 | 15 | 0.0 | 0.0 | 0.00 | 0.00 | 0.00 | 53 | ||
| 20260502231720 | 14 | 0.0 | 0.0 | 0.00 | 0.00 | 0.00 | 53 | ||
| 20260502230834 | 13 | 0.0 | 0.0 | 0.00 | 0.00 | 0.00 | 54 | ||
| 20260502230538 | 13 | 0.0 | 0.0 | 0.00 | 0.00 | 0.00 | 54 | ||
| 20260502225653 | 13 | 0.0 | 0.0 | 0.00 | 0.00 | 0.00 | 55 | ||
| 20260502225357 | 13 | 0.0 | 0.0 | 0.00 | 0.00 | 0.00 | 55 | ||
| 20260502224511 | 12 | 0.0 | 0.0 | 0.00 | 0.00 | 0.00 | 56 | ||
| 20260502224216 | 12 | 0.0 | 0.0 | 0.00 | 0.00 | 0.00 | 57 | ||
| 20260502223329 | 12 | 0.0 | 0.0 | 0.00 | 0.00 | 0.00 | 58 | ||
| 20260502223033 | 12 | 0.0 | 0.0 | 0.00 | 0.00 | 0.00 | 58 | ||
| 20260502222146 | 12 | 0.0 | 0.0 | 0.00 | 0.00 | 0.00 | 59 | ||
| 20260502221851 | 11 | 0.0 | 0.0 | 0.00 | 0.00 | 0.00 | 59 | ||
| 20260502221003 | 11 | 0.0 | 0.0 | 0.00 | 0.00 | 0.00 | 60 | ||
| 20260502220707 | 11 | 0.0 | 0.0 | 0.00 | 0.00 | 0.00 | 60 | ||
| 20260502215820 | 11 | 0.0 | 0.0 | 0.00 | 0.00 | 0.00 | 61 | ||
| 20260502215523 | 11 | 0.0 | 0.0 | 0.00 | 0.00 | 0.00 | 61 | ||
| 20260502214636 | 11 | 0.0 | 0.0 | 0.00 | 0.00 | 0.00 | 62 | ||
| 20260502214339 | 11 | 0.0 | 0.0 | 0.00 | 0.00 | 0.00 | 62 | ||
| 20260502213451 | 10 | 0.0 | 0.0 | 0.00 | 0.00 | 0.00 | 63 | ||
| 20260502213154 | 10 | 0.0 | 0.0 | 0.00 | 0.00 | 0.00 | 63 | ||
| 20260502212305 | 10 | 0.0 | 0.0 | 0.00 | 0.00 | 0.00 | 63 | ||
| 20260502212008 | 10 | 0.0 | 0.0 | 0.00 | 0.00 | 0.00 | 64 | ||
| 20260502211119 | 10 | 0.0 | 0.0 | 0.00 | 0.00 | 0.00 | 64 | ||
| 20260502210822 | 10 | 0.0 | 0.0 | 0.00 | 0.00 | 0.00 | 64 | ||
| 20260502205932 | 10 | 0.0 | 0.0 | 0.00 | 0.00 | 0.00 | 64 | ||
| 20260502205635 | 10 | 0.0 | 0.0 | 0.00 | 0.00 | 0.00 | 64 | ||
| 20260502204745 | 10 | 0.0 | 0.0 | 0.00 | 0.00 | 0.00 | 64 | ||
| 20260502204449 | 10 | 0.0 | 0.0 | 0.00 | 0.00 | 0.00 | 64 | ||
| 20260502203559 | 10 | 0.0 | 0.0 | 0.00 | 0.00 | 0.00 | 64 | ||
| 20260502203302 | 10 | 0.0 | 0.0 | 0.00 | 0.00 | 0.00 | 64 |